Time,TemperatureF,DewpointF,PressureIn,WindDirection,WindDirectionDegrees,WindSpeedMPH,WindSpeedGustMPH,Humidity,HourlyPrecipIn,Conditions,Clouds,dailyrainin,SoftwareType,DateUTC
2013-05-30 00:01:00,59.0,46.0,28.74,North,5,0.0,4.0,62,0.00,,,0.00,,2013-05-30 07:01:00,
2013-05-30 00:11:00,59.0,46.0,28.74,North,5,0.0,4.0,62,0.00,,,0.00,,2013-05-30 07:11:00,
2013-05-30 00:21:00,58.0,45.0,28.74,NW,317,1.0,4.0,63,0.00,,,0.00,,2013-05-30 07:21:00,
2013-05-30 00:31:00,58.0,45.0,28.75,NNE,21,0.0,3.0,63,0.00,,,0.00,,2013-05-30 07:31:00,
2013-05-30 00:42:00,58.0,45.0,28.75,NNE,21,0.0,3.0,63,0.00,,,0.00,,2013-05-30 07:42:00,
2013-05-30 00:52:00,58.0,46.0,28.75,NNE,21,0.0,0.0,64,0.00,,,0.00,,2013-05-30 07:52:00,
2013-05-30 01:01:00,57.0,45.0,28.74,NNE,21,0.0,0.0,65,0.00,,,0.00,,2013-05-30 08:01:00,
2013-05-30 01:11:00,57.0,45.0,28.74,NNE,21,0.0,0.0,65,0.00,,,0.00,,2013-05-30 08:11:00,
2013-05-30 01:21:00,57.0,45.0,28.74,NNE,21,0.0,1.0,65,0.00,,,0.00,,2013-05-30 08:21:00,
2013-05-30 01:31:00,57.0,45.0,28.74,NNE,24,0.0,1.0,64,0.00,,,0.00,,2013-05-30 08:31:00,
2013-05-30 01:41:00,57.0,45.0,28.74,NNE,24,0.0,1.0,64,0.00,,,0.00,,2013-05-30 08:41:00,
2013-05-30 01:52:00,56.0,44.0,28.74,ENE,58,0.0,3.0,64,0.00,,,0.00,,2013-05-30 08:52:00,
2013-05-30 02:01:00,56.0,44.0,28.74,NNE,23,0.0,2.0,65,0.00,,,0.00,,2013-05-30 09:01:00,
2013-05-30 02:11:00,56.0,44.0,28.74,NNE,23,0.0,2.0,65,0.00,,,0.00,,2013-05-30 09:11:00,
2013-05-30 02:21:00,55.0,43.0,28.74,North,11,0.0,2.0,64,0.00,,,0.00,,2013-05-30 09:21:00,
2013-05-30 02:32:00,54.0,43.0,28.74,West,267,0.0,1.0,66,0.00,,,0.00,,2013-05-30 09:32:00,
2013-05-30 02:42:00,54.0,43.0,28.74,West,267,0.0,1.0,66,0.00,,,0.00,,2013-05-30 09:42:00,
2013-05-30 02:53:00,54.0,43.0,28.74,West,267,0.0,0.0,66,0.00,,,0.00,,2013-05-30 09:53:00,
2013-05-30 03:02:00,53.0,42.0,28.74,West,267,0.0,1.0,67,0.00,,,0.00,,2013-05-30 10:02:00,
2013-05-30 03:12:00,53.0,42.0,28.74,West,267,0.0,1.0,67,0.00,,,0.00,,2013-05-30 10:12:00,
2013-05-30 03:22:00,52.0,43.0,28.74,West,271,0.0,2.0,71,0.00,,,0.00,,2013-05-30 10:22:00,
2013-05-30 03:32:00,51.0,43.0,28.74,WNW,292,0.0,2.0,75,0.00,,,0.00,,2013-05-30 10:32:00,
2013-05-30 03:42:00,51.0,43.0,28.74,WNW,292,0.0,2.0,75,0.00,,,0.00,,2013-05-30 10:42:00,
2013-05-30 03:52:00,51.0,43.0,28.74,WNW,292,0.0,0.0,74,0.00,,,0.00,,2013-05-30 10:52:00,
2013-05-30 04:02:00,49.0,42.0,28.74,West,277,0.0,1.0,77,0.00,,,0.00,,2013-05-30 11:02:00,
2013-05-30 04:12:00,49.0,42.0,28.74,West,277,0.0,1.0,77,0.00,,,0.00,,2013-05-30 11:12:00,
2013-05-30 04:21:00,49.0,42.0,28.74,West,277,0.0,0.0,78,0.00,,,0.00,,2013-05-30 11:21:00,
2013-05-30 04:32:00,49.0,42.0,28.75,West,277,0.0,0.0,78,0.00,,,0.00,,2013-05-30 11:32:00,
2013-05-30 04:42:00,49.0,42.0,28.75,West,277,0.0,0.0,78,0.00,,,0.00,,2013-05-30 11:42:00,
2013-05-30 04:52:00,48.0,41.0,28.74,West,277,0.0,0.0,78,0.00,,,0.00,,2013-05-30 11:52:00,
2013-05-30 05:01:00,48.0,42.0,28.74,West,277,0.0,0.0,79,0.00,,,0.00,,2013-05-30 12:01:00,
2013-05-30 05:11:00,48.0,42.0,28.74,West,277,0.0,0.0,79,0.00,,,0.00,,2013-05-30 12:11:00,
2013-05-30 05:21:00,47.0,41.0,28.74,West,277,0.0,0.0,80,0.00,,,0.00,,2013-05-30 12:21:00,
2013-05-30 05:32:00,46.0,41.0,28.75,West,277,0.0,0.0,81,0.00,,,0.00,,2013-05-30 12:32:00,
2013-05-30 05:42:00,46.0,41.0,28.75,West,277,0.0,0.0,81,0.00,,,0.00,,2013-05-30 12:42:00,
2013-05-30 05:52:00,46.0,41.0,28.75,West,277,0.0,0.0,82,0.00,,,0.00,,2013-05-30 12:52:00,
2013-05-30 06:01:00,45.0,40.0,28.75,West,277,0.0,0.0,83,0.00,,,0.00,,2013-05-30 13:01:00,
2013-05-30 06:11:00,45.0,40.0,28.75,West,277,0.0,0.0,83,0.00,,,0.00,,2013-05-30 13:11:00,
2013-05-30 06:22:00,45.0,40.0,28.75,West,277,0.0,0.0,83,0.00,,,0.00,,2013-05-30 13:22:00,
2013-05-30 06:32:00,45.0,40.0,28.75,West,277,0.0,0.0,81,0.00,,,0.00,,2013-05-30 13:32:00,
2013-05-30 06:41:00,45.0,40.0,28.75,West,277,0.0,0.0,81,0.00,,,0.00,,2013-05-30 13:41:00,
2013-05-30 06:52:00,45.0,40.0,28.76,West,277,0.0,0.0,81,0.00,,,0.00,,2013-05-30 13:52:00,
2013-05-30 07:01:00,45.0,40.0,28.76,West,277,0.0,0.0,82,0.00,,,0.00,,2013-05-30 14:01:00,
2013-05-30 07:11:00,45.0,40.0,28.76,West,277,0.0,0.0,82,0.00,,,0.00,,2013-05-30 14:11:00,
2013-05-30 07:21:00,45.0,39.0,28.77,West,277,0.0,0.0,78,0.00,,,0.00,,2013-05-30 14:21:00,
2013-05-30 07:32:00,46.0,40.0,28.77,West,274,0.0,1.0,79,0.00,,,0.00,,2013-05-30 14:32:00,
2013-05-30 07:42:00,46.0,40.0,28.77,West,274,0.0,1.0,79,0.00,,,0.00,,2013-05-30 14:42:00,
2013-05-30 07:52:00,48.0,40.0,28.77,NNE,17,0.0,0.0,75,0.00,,,0.00,,2013-05-30 14:52:00,
2013-05-30 08:01:00,50.0,41.0,28.77,NNE,17,0.0,0.0,71,0.00,,,0.00,,2013-05-30 15:01:00,
2013-05-30 08:11:00,50.0,41.0,28.77,NNE,17,0.0,0.0,71,0.00,,,0.00,,2013-05-30 15:11:00,
2013-05-30 08:22:00,52.0,42.0,28.77,ENE,65,0.0,1.0,69,0.00,,,0.00,,2013-05-30 15:22:00,
2013-05-30 08:33:00,55.0,44.0,28.78,ENE,65,0.0,1.0,67,0.00,,,0.00,,2013-05-30 15:33:00,
2013-05-30 08:42:00,55.0,44.0,28.78,ENE,65,0.0,1.0,67,0.00,,,0.00,,2013-05-30 15:42:00,
2013-05-30 08:52:00,57.0,45.0,28.78,East,82,0.0,1.0,63,0.00,,,0.00,,2013-05-30 15:52:00,
2013-05-30 09:03:00,60.0,46.0,28.78,SE,143,0.0,1.0,59,0.00,,,0.00,,2013-05-30 16:03:00,
2013-05-30 09:12:00,60.0,46.0,28.78,SE,143,0.0,1.0,59,0.00,,,0.00,,2013-05-30 16:12:00,
2013-05-30 09:22:00,62.0,46.0,28.78,SSE,153,0.0,1.0,56,0.00,,,0.00,,2013-05-30 16:22:00,
2013-05-30 09:33:00,65.0,45.0,28.78,SSE,154,0.0,1.0,48,0.00,,,0.00,,2013-05-30 16:33:00,
2013-05-30 09:42:00,65.0,45.0,28.78,SSE,154,0.0,1.0,48,0.00,,,0.00,,2013-05-30 16:42:00,
2013-05-30 09:52:00,68.0,45.0,28.78,SSE,159,0.0,1.0,43,0.00,,,0.00,,2013-05-30 16:52:00,
2013-05-30 10:02:00,70.0,43.0,28.78,West,264,0.0,2.0,38,0.00,,,0.00,,2013-05-30 17:02:00,
2013-05-30 10:22:00,70.0,42.0,28.78,South,186,0.0,4.0,36,0.00,,,0.00,,2013-05-30 17:22:00,
2013-05-30 10:32:00,72.0,41.0,28.78,SW,215,0.0,2.0,33,0.00,,,0.00,,2013-05-30 17:32:00,
2013-05-30 10:52:00,72.0,39.0,28.78,SSE,165,0.0,3.0,30,0.00,,,0.00,,2013-05-30 17:52:00,
2013-05-30 11:02:00,75.0,41.0,28.77,WNW,300,0.0,3.0,29,0.00,,,0.00,,2013-05-30 18:02:00,
2013-05-30 11:21:00,76.0,41.0,28.77,NW,318,0.0,3.0,29,0.00,,,0.00,,2013-05-30 18:21:00,
2013-05-30 11:32:00,78.0,42.0,28.78,NNE,14,1.0,4.0,28,0.00,,,0.00,,2013-05-30 18:32:00,
2013-05-30 11:52:00,77.0,40.0,28.78,WNW,296,1.0,6.0,27,0.00,,,0.00,,2013-05-30 18:52:00,
2013-05-30 12:01:00,79.0,41.0,28.78,WSW,257,1.0,3.0,26,0.00,,,0.00,,2013-05-30 19:01:00,
2013-05-30 12:22:00,80.0,42.0,28.78,NW,313,1.0,6.0,26,0.00,,,0.00,,2013-05-30 19:22:00,
2013-05-30 12:32:00,80.0,41.0,28.77,NNW,348,0.0,3.0,25,0.00,,,0.00,,2013-05-30 19:32:00,
2013-05-30 12:42:00,80.0,41.0,28.77,NNW,348,0.0,3.0,25,0.00,,,0.00,,2013-05-30 19:42:00,
2013-05-30 12:52:00,79.0,41.0,28.77,SW,222,1.0,5.0,26,0.00,,,0.00,,2013-05-30 19:52:00,
2013-05-30 13:01:00,80.0,41.0,28.77,WSW,238,0.0,4.0,25,0.00,,,0.00,,2013-05-30 20:01:00,
2013-05-30 13:11:00,80.0,41.0,28.77,WSW,238,0.0,4.0,25,0.00,,,0.00,,2013-05-30 20:11:00,
2013-05-30 13:22:00,81.0,36.0,28.77,SSW,205,0.0,4.0,20,0.00,,,0.00,,2013-05-30 20:22:00,
2013-05-30 13:33:00,82.0,38.0,28.77,NW,319,0.0,5.0,21,0.00,,,0.00,,2013-05-30 20:33:00,
2013-05-30 13:41:00,82.0,38.0,28.77,NW,319,0.0,5.0,21,0.00,,,0.00,,2013-05-30 20:41:00,
2013-05-30 13:52:00,83.0,38.0,28.76,WSW,250,0.0,4.0,20,0.00,,,0.00,,2013-05-30 20:52:00,
2013-05-30 14:01:00,84.0,33.0,28.76,NW,307,0.0,4.0,16,0.00,,,0.00,,2013-05-30 21:01:00,
2013-05-30 14:11:00,84.0,33.0,28.76,NW,307,0.0,4.0,16,0.00,,,0.00,,2013-05-30 21:11:00,
2013-05-30 14:22:00,85.0,43.0,28.76,SW,232,1.0,7.0,23,0.00,,,0.00,,2013-05-30 21:22:00,
2013-05-30 14:33:00,84.0,40.0,28.75,WSW,244,1.0,5.0,21,0.00,,,0.00,,2013-05-30 21:33:00,
2013-05-30 14:42:00,84.0,40.0,28.75,WSW,244,1.0,5.0,21,0.00,,,0.00,,2013-05-30 21:42:00,
2013-05-30 14:53:00,84.0,36.0,28.75,NW,309,0.0,3.0,18,0.00,,,0.00,,2013-05-30 21:53:00,
2013-05-30 15:02:00,85.0,41.0,28.75,WNW,293,0.0,3.0,21,0.00,,,0.00,,2013-05-30 22:02:00,
2013-05-30 15:12:00,85.0,41.0,28.75,WNW,293,0.0,3.0,21,0.00,,,0.00,,2013-05-30 22:12:00,
2013-05-30 15:22:00,85.0,42.0,28.75,SW,223,2.0,4.0,22,0.00,,,0.00,,2013-05-30 22:22:00,
2013-05-30 15:32:00,84.0,39.0,28.75,West,264,1.0,4.0,20,0.00,,,0.00,,2013-05-30 22:32:00,
2013-05-30 15:42:00,84.0,39.0,28.75,West,264,1.0,4.0,20,0.00,,,0.00,,2013-05-30 22:42:00,
2013-05-30 15:52:00,83.0,38.0,28.74,SW,234,1.0,5.0,20,0.00,,,0.00,,2013-05-30 22:52:00,
2013-05-30 16:02:00,84.0,39.0,28.75,WSW,256,1.0,3.0,20,0.00,,,0.00,,2013-05-30 23:02:00,
2013-05-30 16:11:00,84.0,39.0,28.75,WSW,256,1.0,3.0,20,0.00,,,0.00,,2013-05-30 23:11:00,
2013-05-30 16:21:00,84.0,41.0,28.74,SW,223,1.0,4.0,22,0.00,,,0.00,,2013-05-30 23:21:00,
2013-05-30 16:31:00,84.0,41.0,28.74,SW,221,3.0,6.0,22,0.00,,,0.00,,2013-05-30 23:31:00,
2013-05-30 16:41:00,84.0,41.0,28.74,SW,221,3.0,6.0,22,0.00,,,0.00,,2013-05-30 23:41:00,
2013-05-30 16:52:00,83.0,41.0,28.73,SSW,213,1.0,4.0,23,0.00,,,0.00,,2013-05-30 23:52:00,
2013-05-30 17:01:00,83.0,40.0,28.73,SW,234,2.0,5.0,22,0.00,,,0.00,,2013-05-31 00:01:00,
2013-05-30 17:11:00,83.0,40.0,28.73,SW,234,2.0,5.0,22,0.00,,,0.00,,2013-05-31 00:11:00,
2013-05-30 17:21:00,83.0,41.0,28.73,SW,227,2.0,5.0,23,0.00,,,0.00,,2013-05-31 00:21:00,
2013-05-30 17:32:00,82.0,42.0,28.73,SW,232,2.0,5.0,24,0.00,,,0.00,,2013-05-31 00:32:00,
2013-05-30 17:41:00,82.0,42.0,28.73,SW,232,2.0,5.0,24,0.00,,,0.00,,2013-05-31 00:41:00,
2013-05-30 17:52:00,82.0,42.0,28.73,South,191,0.0,8.0,24,0.00,,,0.00,,2013-05-31 00:52:00,
2013-05-30 18:01:00,81.0,40.0,28.74,North,355,1.0,6.0,23,0.00,,,0.00,,2013-05-31 01:01:00,
2013-05-30 18:11:00,81.0,40.0,28.74,North,355,1.0,6.0,23,0.00,,,0.00,,2013-05-31 01:11:00,
2013-05-30 18:21:00,80.0,41.0,28.74,NE,34,3.0,8.0,25,0.00,,,0.00,,2013-05-31 01:21:00,
2013-05-30 18:31:00,79.0,40.0,28.74,WNW,295,2.0,6.0,25,0.00,,,0.00,,2013-05-31 01:31:00,
2013-05-30 18:42:00,78.0,41.0,28.74,North,360,1.0,9.0,27,0.00,,,0.00,,2013-05-31 01:42:00,
2013-05-30 18:52:00,78.0,41.0,28.74,North,360,1.0,9.0,27,0.00,,,0.00,,2013-05-31 01:52:00,
2013-05-30 19:02:00,77.0,41.0,28.74,NNW,346,1.0,11.0,28,0.00,,,0.00,,2013-05-31 02:02:00,
2013-05-30 19:11:00,77.0,41.0,28.74,NNW,346,1.0,11.0,28,0.00,,,0.00,,2013-05-31 02:11:00,
2013-05-30 19:21:00,76.0,41.0,28.74,WNW,295,3.0,7.0,29,0.00,,,0.00,,2013-05-31 02:21:00,
2013-05-30 19:31:00,75.0,42.0,28.75,NW,315,2.0,10.0,31,0.00,,,0.00,,2013-05-31 02:31:00,
2013-05-30 19:41:00,75.0,42.0,28.75,NW,315,2.0,10.0,31,0.00,,,0.00,,2013-05-31 02:41:00,
2013-05-30 19:51:00,74.0,43.0,28.75,SW,225,3.0,7.0,33,0.00,,,0.00,,2013-05-31 02:51:00,
2013-05-30 20:01:00,73.0,43.0,28.75,WNW,302,0.0,4.0,34,0.00,,,0.00,,2013-05-31 03:01:00,
2013-05-30 20:11:00,73.0,43.0,28.75,WNW,302,0.0,4.0,34,0.00,,,0.00,,2013-05-31 03:11:00,
2013-05-30 20:21:00,72.0,43.0,28.76,NW,313,2.0,6.0,35,0.00,,,0.00,,2013-05-31 03:21:00,
2013-05-30 20:33:00,71.0,43.0,28.76,NW,306,0.0,2.0,37,0.00,,,0.00,,2013-05-31 03:33:00,
2013-05-30 20:43:00,71.0,43.0,28.76,NW,306,0.0,2.0,37,0.00,,,0.00,,2013-05-31 03:43:00,
2013-05-30 20:53:00,70.0,44.0,28.76,West,268,0.0,3.0,39,0.00,,,0.00,,2013-05-31 03:53:00,
2013-05-30 21:02:00,69.0,44.0,28.76,WNW,297,0.0,2.0,40,0.00,,,0.00,,2013-05-31 04:02:00,
2013-05-30 21:12:00,69.0,44.0,28.76,WNW,297,0.0,2.0,40,0.00,,,0.00,,2013-05-31 04:12:00,
2013-05-30 21:22:00,68.0,44.0,28.77,NNW,333,0.0,2.0,42,0.00,,,0.00,,2013-05-31 04:22:00,
2013-05-30 21:32:00,67.0,44.0,28.77,NNW,333,0.0,0.0,43,0.00,,,0.00,,2013-05-31 04:32:00,
2013-05-30 21:42:00,67.0,44.0,28.77,NNW,333,0.0,0.0,43,0.00,,,0.00,,2013-05-31 04:42:00,
2013-05-30 21:53:00,66.0,43.0,28.78,NNW,333,0.0,1.0,44,0.00,,,0.00,,2013-05-31 04:53:00,
2013-05-30 22:02:00,66.0,44.0,28.78,NW,309,1.0,5.0,45,0.00,,,0.00,,2013-05-31 05:02:00,
2013-05-30 22:12:00,66.0,44.0,28.78,NW,309,1.0,5.0,45,0.00,,,0.00,,2013-05-31 05:12:00,
2013-05-30 22:22:00,66.0,45.0,28.79,West,272,1.0,3.0,46,0.00,,,0.00,,2013-05-31 05:22:00,
2013-05-30 22:31:00,65.0,44.0,28.79,NNW,332,0.0,2.0,47,0.00,,,0.00,,2013-05-31 05:31:00,
2013-05-30 22:42:00,65.0,44.0,28.79,NNW,332,0.0,2.0,47,0.00,,,0.00,,2013-05-31 05:42:00,
2013-05-30 22:52:00,65.0,45.0,28.80,NW,320,0.0,2.0,48,0.00,,,0.00,,2013-05-31 05:52:00,
2013-05-30 23:01:00,64.0,44.0,28.80,WNW,296,0.0,1.0,48,0.00,,,0.00,,2013-05-31 06:01:00,
2013-05-30 23:11:00,64.0,44.0,28.80,WNW,296,0.0,1.0,48,0.00,,,0.00,,2013-05-31 06:11:00,
2013-05-30 23:21:00,64.0,44.0,28.80,WNW,296,0.0,1.0,49,0.00,,,0.00,,2013-05-31 06:21:00,
2013-05-30 23:31:00,63.0,44.0,28.80,NW,311,0.0,1.0,50,0.00,,,0.00,,2013-05-31 06:31:00,
2013-05-30 23:41:00,63.0,44.0,28.80,NW,311,0.0,1.0,50,0.00,,,0.00,,2013-05-31 06:41:00,
2013-05-30 23:52:00,62.0,44.0,28.80,NW,311,0.0,0.0,52,0.00,,,0.00,,2013-05-31 06:52:00,